createdAt,value
2022-12-03T00:01:36.046Z,100213.08
2022-12-03T00:04:04.308Z,100212.07
2022-12-03T00:06:34.687Z,100212.17
2022-12-03T00:09:04.612Z,100210.97
2022-12-03T00:11:32.867Z,100209.14
2022-12-03T00:14:01.020Z,100211.15
2022-12-03T00:16:29.108Z,100210.70
2022-12-03T00:18:57.182Z,100213.45
2022-12-03T00:21:25.354Z,100214.30
2022-12-03T00:23:53.457Z,100209.81
2022-12-03T00:26:21.584Z,100212.79
2022-12-03T00:28:49.776Z,100211.20
2022-12-03T00:31:18.063Z,100211.92
2022-12-03T00:33:46.165Z,100215.27
2022-12-03T00:36:14.211Z,100213.92
2022-12-03T00:38:42.326Z,100216.45
2022-12-03T00:41:10.358Z,100214.52
2022-12-03T00:43:38.430Z,100219.81
2022-12-03T00:46:06.553Z,100217.94
2022-12-03T00:48:34.677Z,100208.30
2022-12-03T00:51:02.846Z,100200.04
2022-12-03T00:53:30.903Z,100198.20
2022-12-03T00:55:59.141Z,100198.06
2022-12-03T00:58:27.186Z,100194.39
2022-12-03T01:00:55.235Z,100192.55
2022-12-03T01:03:23.256Z,100189.47
2022-12-03T01:05:51.351Z,100195.84
2022-12-03T01:08:19.496Z,100199.79
2022-12-03T01:10:47.497Z,100198.18
2022-12-03T01:13:15.541Z,100201.06
2022-12-03T01:15:43.749Z,100198.67
2022-12-03T01:18:11.836Z,100197.78
2022-12-03T01:20:39.956Z,100202.96
2022-12-03T01:23:08.060Z,100199.47
2022-12-03T01:25:36.074Z,100205.85
2022-12-03T01:28:04.169Z,100211.80
2022-12-03T01:30:52.200Z,100211.36
2022-12-03T01:33:20.283Z,100209.92
2022-12-03T01:35:48.310Z,100212.23
2022-12-03T01:38:16.324Z,100217.80
2022-12-03T01:40:44.420Z,100219.38
2022-12-03T01:43:12.420Z,100216.10
2022-12-03T01:45:40.570Z,100219.38
2022-12-03T01:48:13.804Z,100218.23
2022-12-03T01:50:42.841Z,100214.30
2022-12-03T01:53:15.726Z,100208.99
2022-12-03T01:55:48.445Z,100205.82
2022-12-03T01:58:20.379Z,100210.55
2022-12-03T02:00:48.400Z,100208.05
2022-12-03T02:03:23.492Z,100201.63
2022-12-03T02:05:52.671Z,100198.34
2022-12-03T02:08:31.023Z,100192.66
2022-12-03T02:11:03.361Z,100192.89
2022-12-03T02:13:32.253Z,100187.82
2022-12-03T02:16:00.458Z,100195.33
2022-12-03T02:18:28.599Z,100197.70
2022-12-03T02:21:06.882Z,100194.59
2022-12-03T02:23:45.754Z,100193.23
2022-12-03T02:26:13.803Z,100192.09
2022-12-03T02:28:42.116Z,100188.27
2022-12-03T02:31:10.308Z,100190.27
2022-12-03T02:33:38.824Z,100185.98
2022-12-03T02:36:07.214Z,100188.12
2022-12-03T02:38:36.411Z,100189.52
2022-12-03T02:41:09.766Z,100186.53
2022-12-03T02:43:38.997Z,100181.89
2022-12-03T02:46:08.171Z,100178.76
2022-12-03T02:48:38.909Z,100182.00
2022-12-03T02:51:11.272Z,100184.95
2022-12-03T02:53:44.813Z,100179.44
2022-12-03T02:56:16.208Z,100176.78
2022-12-03T02:58:47.128Z,100178.33
2022-12-03T03:01:16.912Z,100180.35
2022-12-03T03:03:47.432Z,100182.00
2022-12-03T03:06:17.332Z,100180.72
2022-12-03T03:08:45.686Z,100180.30
2022-12-03T03:11:13.826Z,100185.84
2022-12-03T03:13:42.206Z,100183.91
2022-12-03T03:16:10.691Z,100185.27
2022-12-03T03:18:39.859Z,100185.48
2022-12-03T03:21:08.264Z,100181.33
2022-12-03T03:23:36.418Z,100183.91
2022-12-03T03:26:12.060Z,100181.58
2022-12-03T03:28:48.830Z,100178.77
2022-12-03T03:31:21.464Z,100182.30
2022-12-03T03:33:50.399Z,100186.28
2022-12-03T03:36:20.271Z,100187.81
2022-12-03T03:38:49.035Z,100188.02
2022-12-03T03:41:18.494Z,100183.94
2022-12-03T03:43:48.522Z,100183.77
2022-12-03T03:46:17.903Z,100179.79
2022-12-03T03:48:48.726Z,100178.59
2022-12-03T03:51:18.004Z,100183.04
2022-12-03T03:53:49.097Z,100182.46
2022-12-03T03:56:19.528Z,100179.16
2022-12-03T03:58:47.717Z,100183.56
2022-12-03T04:01:17.144Z,100185.29
2022-12-03T04:03:45.363Z,100189.26
2022-12-03T04:06:13.416Z,100182.84
2022-12-03T04:08:41.451Z,100186.96
2022-12-03T04:11:28.222Z,100184.05
2022-12-03T04:13:56.272Z,100182.97
2022-12-03T04:16:24.355Z,100181.09
2022-12-03T04:18:52.421Z,100183.48
2022-12-03T04:21:41.791Z,100181.02
2022-12-03T04:24:11.728Z,100183.43
2022-12-03T04:26:58.451Z,100182.05
2022-12-03T04:29:26.462Z,100182.58
2022-12-03T04:32:13.092Z,100179.33
2022-12-03T04:34:59.923Z,100180.66
2022-12-03T04:37:27.985Z,100186.98
2022-12-03T04:39:56.116Z,100191.25
2022-12-03T04:42:24.166Z,100189.79
2022-12-03T04:44:52.531Z,100187.25
2022-12-03T04:47:22.027Z,100184.03
2022-12-03T04:49:51.839Z,100184.33
2022-12-03T04:52:21.330Z,100181.75
2022-12-03T04:54:49.410Z,100179.70
2022-12-03T04:57:17.577Z,100182.98
2022-12-03T04:59:45.861Z,100180.20
2022-12-03T05:02:14.004Z,100180.23
2022-12-03T05:04:43.424Z,100178.48
2022-12-03T05:07:11.835Z,100174.14
2022-12-03T05:09:39.919Z,100171.57
2022-12-03T05:12:07.976Z,100173.98
2022-12-03T05:14:36.731Z,100177.20
2022-12-03T05:17:04.915Z,100179.19
2022-12-03T05:19:51.735Z,100182.48
2022-12-03T05:22:19.845Z,100188.65
2022-12-03T05:24:47.865Z,100191.73
2022-12-03T05:27:20.216Z,100194.08
2022-12-03T05:29:52.055Z,100199.30
2022-12-03T05:32:20.480Z,100194.44
2022-12-03T05:34:48.550Z,100193.27
2022-12-03T05:37:16.688Z,100197.01
2022-12-03T05:39:44.727Z,100197.61
2022-12-03T05:42:31.439Z,100200.06
2022-12-03T05:44:59.477Z,100201.85
2022-12-03T05:47:27.514Z,100206.80
2022-12-03T05:49:55.610Z,100199.92
2022-12-03T05:52:23.662Z,100189.54
2022-12-03T05:54:51.989Z,100183.39
2022-12-03T05:57:20.576Z,100184.00
2022-12-03T05:59:48.615Z,100190.34
2022-12-03T06:02:16.709Z,100188.79
2022-12-03T06:04:44.855Z,100188.66
2022-12-03T06:07:14.290Z,100185.23
2022-12-03T06:09:42.571Z,100182.21
2022-12-03T06:12:10.604Z,100183.64
2022-12-03T06:14:38.701Z,100181.53
2022-12-03T06:17:06.852Z,100184.65
2022-12-03T06:19:35.012Z,100188.10
2022-12-03T06:22:03.144Z,100184.10
2022-12-03T06:24:31.193Z,100182.58
2022-12-03T06:26:59.259Z,100178.45
2022-12-03T06:29:27.298Z,100177.18
2022-12-03T06:31:55.454Z,100182.16
2022-12-03T06:34:23.494Z,100180.96
2022-12-03T06:36:51.527Z,100177.46
2022-12-03T06:39:19.684Z,100176.69
2022-12-03T06:41:47.715Z,100186.79
2022-12-03T06:44:15.782Z,100185.58
2022-12-03T06:46:43.916Z,100184.64
2022-12-03T06:49:11.949Z,100189.34
2022-12-03T06:51:40.093Z,100200.46
2022-12-03T06:54:08.171Z,100199.94
2022-12-03T06:56:41.885Z,100200.02
2022-12-03T06:59:14.026Z,100193.11
2022-12-03T07:01:42.344Z,100196.30
2022-12-03T07:04:10.489Z,100195.63
2022-12-03T07:06:38.603Z,100195.77
2022-12-03T07:09:06.691Z,100200.25
2022-12-03T07:11:40.567Z,100205.80
2022-12-03T07:14:11.636Z,100203.31
2022-12-03T07:16:40.658Z,100200.16
2022-12-03T07:19:09.817Z,100199.98
2022-12-03T07:21:38.269Z,100197.85
2022-12-03T07:24:06.885Z,100201.46
2022-12-03T07:26:35.019Z,100204.27
2022-12-03T07:29:03.233Z,100208.92
2022-12-03T07:31:31.430Z,100210.86
2022-12-03T07:33:59.652Z,100209.46
2022-12-03T07:36:27.669Z,100216.25
2022-12-03T07:38:55.934Z,100215.63
2022-12-03T07:41:23.959Z,100211.46
2022-12-03T07:43:52.009Z,100206.67
2022-12-03T07:46:20.113Z,100198.36
2022-12-03T07:48:48.273Z,100197.17
2022-12-03T07:51:16.438Z,100194.54
2022-12-03T07:53:44.453Z,100192.45
2022-12-03T07:56:12.548Z,100199.67
2022-12-03T07:58:40.658Z,100203.09
2022-12-03T08:01:08.843Z,100203.41
2022-12-03T08:03:37.006Z,100206.08
2022-12-03T08:06:05.223Z,100209.07
2022-12-03T08:08:33.273Z,100209.59
2022-12-03T08:11:02.322Z,100209.17
2022-12-03T08:13:30.874Z,100207.36
2022-12-03T08:16:09.142Z,100213.38
2022-12-03T08:18:37.328Z,100216.41
2022-12-03T08:21:06.858Z,100216.18
2022-12-03T08:23:34.910Z,100216.36
2022-12-03T08:26:27.598Z,100217.95
2022-12-03T08:28:55.715Z,100220.39
2022-12-03T08:31:32.765Z,100221.91
2022-12-03T08:34:23.737Z,100229.05
2022-12-03T08:36:58.060Z,100234.69
2022-12-03T08:39:30.515Z,100229.53
2022-12-03T08:42:28.146Z,100228.41
2022-12-03T08:44:57.237Z,100230.55
2022-12-03T08:47:25.509Z,100226.61
2022-12-03T08:50:03.348Z,100226.54
2022-12-03T08:52:33.877Z,100219.92
2022-12-03T08:55:38.221Z,100223.60
2022-12-03T08:58:32.255Z,100224.00
2022-12-03T09:01:05.930Z,100222.65
2022-12-03T09:03:34.636Z,100223.48
2022-12-03T09:06:02.811Z,100214.85
2022-12-03T09:08:31.723Z,100209.30
2022-12-03T09:10:59.796Z,100206.30
2022-12-03T09:13:27.812Z,100211.73
2022-12-03T09:15:55.965Z,100217.88
2022-12-03T09:18:24.093Z,100218.02
2022-12-03T09:20:52.112Z,100219.21
2022-12-03T09:23:20.158Z,100222.98
2022-12-03T09:25:48.174Z,100225.59
2022-12-03T09:28:16.170Z,100225.96
2022-12-03T09:30:44.216Z,100221.65
2022-12-03T09:33:12.364Z,100218.95
2022-12-03T09:35:40.407Z,100218.55
2022-12-03T09:38:08.448Z,100219.06
2022-12-03T09:40:36.524Z,100216.43
2022-12-03T09:43:05.271Z,100215.29
2022-12-03T09:45:33.465Z,100214.52
2022-12-03T09:48:04.136Z,100216.63
2022-12-03T09:50:32.722Z,100220.25
2022-12-03T09:53:03.971Z,100217.49
2022-12-03T09:55:32.644Z,100222.05
2022-12-03T09:58:00.937Z,100220.51
2022-12-03T10:00:30.498Z,100224.38
2022-12-03T10:03:03.143Z,100224.63
2022-12-03T10:05:31.214Z,100223.13
2022-12-03T10:08:06.918Z,100211.78
2022-12-03T10:10:36.557Z,100215.08
2022-12-03T10:13:06.177Z,100208.06
2022-12-03T10:15:34.418Z,100214.48
2022-12-03T10:18:21.798Z,100218.22
2022-12-03T10:20:51.500Z,100220.83
2022-12-03T10:23:24.069Z,100214.87
2022-12-03T10:25:58.282Z,100211.08
2022-12-03T10:28:37.007Z,100210.71
2022-12-03T10:31:07.723Z,100205.41
2022-12-03T10:33:44.994Z,100201.46
2022-12-03T10:36:19.564Z,100200.72
2022-12-03T10:39:12.985Z,100199.40
2022-12-03T10:41:42.890Z,100207.34
2022-12-03T10:44:22.497Z,100208.05
2022-12-03T10:47:16.049Z,100205.77
2022-12-03T10:49:44.298Z,100202.80
2022-12-03T10:52:26.059Z,100202.42
2022-12-03T10:54:54.524Z,100196.00
2022-12-03T10:57:23.630Z,100194.10
2022-12-03T10:59:51.789Z,100195.77
2022-12-03T11:02:22.815Z,100199.31
2022-12-03T11:04:51.931Z,100199.15
2022-12-03T11:07:22.294Z,100195.05
2022-12-03T11:09:52.606Z,100191.34
2022-12-03T11:12:26.364Z,100188.66
2022-12-03T11:14:55.125Z,100183.10
2022-12-03T11:17:41.624Z,100181.02
2022-12-03T11:20:32.386Z,100178.34
2022-12-03T11:23:00.485Z,100177.59
2022-12-03T11:25:28.553Z,100172.90
2022-12-03T11:28:11.941Z,100172.12
2022-12-03T11:30:48.925Z,100163.55
2022-12-03T11:33:27.040Z,100159.50
2022-12-03T11:36:04.330Z,100156.64
2022-12-03T11:38:52.243Z,100148.79
2022-12-03T11:41:28.919Z,100154.55
2022-12-03T11:44:04.275Z,100149.99
2022-12-03T11:46:43.807Z,100144.73
2022-12-03T11:49:35.737Z,100145.54
2022-12-03T11:52:20.261Z,100143.13
2022-12-03T11:54:53.214Z,100143.11
2022-12-03T11:57:31.010Z,100143.16
2022-12-03T12:00:21.202Z,100140.56
2022-12-03T12:02:50.826Z,100145.16
2022-12-03T12:05:29.559Z,100140.52
2022-12-03T12:07:57.803Z,100138.23
2022-12-03T12:10:39.225Z,100141.59
2022-12-03T12:13:24.881Z,100143.20
2022-12-03T12:15:53.269Z,100140.33
2022-12-03T12:18:43.638Z,100139.02
2022-12-03T12:21:42.016Z,100140.09
2022-12-03T12:24:29.195Z,100138.84
2022-12-03T12:27:00.171Z,100140.30
2022-12-03T12:29:28.570Z,100135.29
2022-12-03T12:32:17.495Z,100134.14
2022-12-03T12:34:51.297Z,100130.63
2022-12-03T12:37:36.454Z,100129.30
2022-12-03T12:40:12.954Z,100128.47
2022-12-03T12:42:50.367Z,100121.70
2022-12-03T12:45:30.370Z,100127.04
2022-12-03T12:48:07.290Z,100129.06
2022-12-03T12:50:37.334Z,100131.30
2022-12-03T12:53:26.163Z,100126.63
2022-12-03T12:56:07.142Z,100121.63
2022-12-03T12:58:36.168Z,100124.89
2022-12-03T13:01:08.067Z,100123.20
2022-12-03T13:03:39.867Z,100123.66
2022-12-03T13:06:15.157Z,100133.94
2022-12-03T13:08:46.024Z,100133.00
2022-12-03T13:11:39.683Z,100130.35
2022-12-03T13:14:16.331Z,100124.90
2022-12-03T13:16:45.271Z,100126.52
2022-12-03T13:19:21.767Z,100125.45
2022-12-03T13:21:51.979Z,100125.27
2022-12-03T13:24:41.512Z,100121.59
2022-12-03T13:27:19.749Z,100124.25
2022-12-03T13:30:09.926Z,100126.77
2022-12-03T13:32:38.541Z,100130.95
2022-12-03T13:35:31.153Z,100135.27
2022-12-03T13:37:59.567Z,100135.36
2022-12-03T13:40:30.883Z,100136.40
2022-12-03T13:42:59.594Z,100137.41
2022-12-03T13:45:40.507Z,100134.14
2022-12-03T13:48:17.728Z,100131.66
2022-12-03T13:50:46.336Z,100128.58
2022-12-03T13:53:23.393Z,100134.09
2022-12-03T13:55:59.198Z,100139.52
2022-12-03T13:58:27.261Z,100139.63
2022-12-03T14:00:55.680Z,100140.36
2022-12-03T14:03:23.718Z,100143.35
2022-12-03T14:05:51.725Z,100145.05
2022-12-03T14:08:19.853Z,100146.45
2022-12-03T14:10:47.976Z,100148.83
2022-12-03T14:13:15.980Z,100152.66
2022-12-03T14:15:44.143Z,100150.15
2022-12-03T14:18:12.174Z,100148.30
2022-12-03T14:20:40.198Z,100148.42
2022-12-03T14:23:08.259Z,100147.73
2022-12-03T14:25:36.322Z,100148.83
2022-12-03T14:28:08.776Z,100146.16
2022-12-03T14:30:37.283Z,100150.23
2022-12-03T14:33:05.342Z,100148.23
2022-12-03T14:35:33.343Z,100150.31
2022-12-03T14:38:01.353Z,100155.45
2022-12-03T14:40:29.362Z,100154.95
2022-12-03T14:42:57.424Z,100155.78
2022-12-03T14:45:27.779Z,100151.37
2022-12-03T14:47:56.253Z,100152.86
2022-12-03T14:50:26.943Z,100152.24
2022-12-03T14:52:55.070Z,100150.99
2022-12-03T14:55:23.276Z,100155.75
2022-12-03T14:57:51.421Z,100153.41
2022-12-03T15:00:20.392Z,100147.65
2022-12-03T15:02:48.475Z,100148.98
2022-12-03T15:05:16.744Z,100148.89
2022-12-03T15:07:45.150Z,100152.28
2022-12-03T15:10:13.265Z,100159.72
2022-12-03T15:12:41.295Z,100161.51
2022-12-03T15:15:10.460Z,100162.56
2022-12-03T15:17:38.610Z,100154.19
2022-12-03T15:20:07.637Z,100158.08
2022-12-03T15:22:35.655Z,100163.14
2022-12-03T15:25:04.163Z,100163.64
2022-12-03T15:27:32.218Z,100164.31
2022-12-03T15:30:00.334Z,100160.97
2022-12-03T15:32:28.474Z,100161.52
2022-12-03T15:34:56.549Z,100165.70
2022-12-03T15:37:27.765Z,100167.27
2022-12-03T15:39:56.240Z,100169.41
2022-12-03T15:42:24.640Z,100170.16
2022-12-03T15:44:52.692Z,100167.67
2022-12-03T15:47:20.777Z,100162.21
2022-12-03T15:49:49.048Z,100158.91
2022-12-03T15:52:17.179Z,100163.91
2022-12-03T15:54:46.225Z,100168.16
2022-12-03T15:57:14.269Z,100171.52
2022-12-03T15:59:43.300Z,100165.63
2022-12-03T16:02:11.476Z,100164.88
2022-12-03T16:04:39.814Z,100169.35
2022-12-03T16:07:07.931Z,100170.66
2022-12-03T16:09:36.105Z,100173.83
2022-12-03T16:12:04.364Z,100172.06
2022-12-03T16:14:32.623Z,100171.53
2022-12-03T16:17:01.213Z,100170.98
2022-12-03T16:19:29.209Z,100169.74
2022-12-03T16:21:57.388Z,100172.50
2022-12-03T16:24:25.446Z,100172.29
2022-12-03T16:26:53.580Z,100172.50
2022-12-03T16:29:21.708Z,100176.33
2022-12-03T16:31:49.761Z,100181.77
2022-12-03T16:34:17.813Z,100180.05
2022-12-03T16:36:45.971Z,100174.00
2022-12-03T16:39:14.038Z,100170.02
2022-12-03T16:41:42.127Z,100173.87
2022-12-03T16:44:20.254Z,100172.13
2022-12-03T16:46:48.450Z,100173.13
2022-12-03T16:49:16.927Z,100173.02
2022-12-03T16:51:44.993Z,100181.47
2022-12-03T16:54:13.035Z,100179.96
2022-12-03T16:56:41.035Z,100185.95
2022-12-03T16:59:09.070Z,100180.55
2022-12-03T17:01:37.154Z,100182.61
2022-12-03T17:04:05.215Z,100184.89
2022-12-03T17:06:33.238Z,100188.52
2022-12-03T17:09:01.697Z,100188.66
2022-12-03T17:11:29.814Z,100192.05
2022-12-03T17:13:57.851Z,100189.03
2022-12-03T17:16:25.984Z,100190.91
2022-12-03T17:18:54.058Z,100196.44
2022-12-03T17:21:22.233Z,100200.10
2022-12-03T17:23:51.225Z,100200.63
2022-12-03T17:26:19.928Z,100194.61
2022-12-03T17:28:48.026Z,100194.74
2022-12-03T17:31:16.192Z,100195.50
2022-12-03T17:33:44.244Z,100195.08
2022-12-03T17:36:12.298Z,100194.10
2022-12-03T17:38:40.681Z,100196.69
2022-12-03T17:41:08.777Z,100197.39
2022-12-03T17:43:36.868Z,100194.79
2022-12-03T17:46:06.823Z,100200.40
2022-12-03T17:48:35.537Z,100200.02
2022-12-03T17:51:03.696Z,100198.92
2022-12-03T17:53:31.715Z,100197.29
2022-12-03T17:55:59.754Z,100196.84
2022-12-03T17:58:28.668Z,100194.33
2022-12-03T18:01:02.069Z,100189.73
2022-12-03T18:03:31.782Z,100185.20
2022-12-03T18:05:59.920Z,100181.86
2022-12-03T18:08:28.094Z,100179.73
2022-12-03T18:10:56.203Z,100179.27
2022-12-03T18:13:24.268Z,100174.48
2022-12-03T18:15:52.320Z,100178.62
2022-12-03T18:18:20.392Z,100183.05
2022-12-03T18:20:48.472Z,100185.65
2022-12-03T18:23:16.526Z,100180.94
2022-12-03T18:25:44.612Z,100177.67
2022-12-03T18:28:12.672Z,100177.84
2022-12-03T18:30:40.716Z,100180.42
2022-12-03T18:33:08.767Z,100176.81
2022-12-03T18:35:37.014Z,100178.78
2022-12-03T18:38:05.418Z,100176.02
2022-12-03T18:40:33.542Z,100174.55
2022-12-03T18:43:01.557Z,100175.66
2022-12-03T18:45:29.605Z,100172.17
2022-12-03T18:47:57.809Z,100179.17
2022-12-03T18:50:26.068Z,100176.70
2022-12-03T18:52:54.104Z,100176.02
2022-12-03T18:55:22.258Z,100173.67
2022-12-03T18:57:50.347Z,100174.95
2022-12-03T19:00:18.755Z,100175.37
2022-12-03T19:03:03.953Z,100173.23
2022-12-03T19:05:34.320Z,100173.67
2022-12-03T19:08:03.306Z,100171.85
2022-12-03T19:10:31.444Z,100174.78
2022-12-03T19:12:59.521Z,100176.13
2022-12-03T19:15:27.614Z,100179.67
2022-12-03T19:17:55.688Z,100180.56
2022-12-03T19:20:23.741Z,100178.93
2022-12-03T19:22:51.732Z,100175.55
2022-12-03T19:25:19.812Z,100179.49
2022-12-03T19:27:50.253Z,100175.46
2022-12-03T19:30:18.326Z,100174.73
2022-12-03T19:32:46.653Z,100168.48
2022-12-03T19:35:14.671Z,100166.39
2022-12-03T19:37:42.832Z,100164.67
2022-12-03T19:40:11.103Z,100165.42
2022-12-03T19:42:39.266Z,100170.69
2022-12-03T19:45:08.740Z,100169.11
2022-12-03T19:47:37.327Z,100169.66
2022-12-03T19:50:06.816Z,100168.91
2022-12-03T19:52:35.405Z,100169.95
2022-12-03T19:55:03.780Z,100173.91
2022-12-03T19:57:31.826Z,100175.21
2022-12-03T20:00:01.296Z,100178.70
2022-12-03T20:02:29.564Z,100179.27
2022-12-03T20:04:57.850Z,100184.98
2022-12-03T20:07:25.979Z,100181.02
2022-12-03T20:09:54.500Z,100178.28
2022-12-03T20:12:22.805Z,100182.52
2022-12-03T20:14:51.855Z,100182.83
2022-12-03T20:17:20.021Z,100177.45
2022-12-03T20:19:48.241Z,100175.61
2022-12-03T20:22:16.285Z,100172.13
2022-12-03T20:24:44.334Z,100176.69
2022-12-03T20:27:12.372Z,100178.92
2022-12-03T20:29:40.384Z,100180.20
2022-12-03T20:32:08.719Z,100179.28
2022-12-03T20:34:36.922Z,100176.18
2022-12-03T20:37:04.977Z,100171.73
2022-12-03T20:39:33.033Z,100166.70
2022-12-03T20:42:01.082Z,100170.93
2022-12-03T20:44:29.157Z,100164.30
2022-12-03T20:46:57.240Z,100164.95
2022-12-03T20:49:25.287Z,100161.30
2022-12-03T20:51:53.358Z,100162.00
2022-12-03T20:54:21.480Z,100159.08
2022-12-03T20:56:50.207Z,100162.02
2022-12-03T20:59:18.349Z,100159.36
2022-12-03T21:01:46.565Z,100160.29
2022-12-03T21:04:16.240Z,100154.29
2022-12-03T21:06:45.668Z,100149.10
2022-12-03T21:09:14.274Z,100151.90
2022-12-03T21:11:42.689Z,100150.34
2022-12-03T21:14:11.414Z,100151.96
2022-12-03T21:17:06.643Z,100146.41
2022-12-03T21:19:28.425Z,100146.20
2022-12-03T21:21:56.607Z,100145.65
2022-12-03T21:24:24.834Z,100146.67
2022-12-03T21:26:52.913Z,100145.28
2022-12-03T21:29:20.939Z,100144.36
2022-12-03T21:31:48.980Z,100144.89
2022-12-03T21:34:17.136Z,100147.98
2022-12-03T21:36:45.185Z,100150.65
2022-12-03T21:39:13.261Z,100153.30
2022-12-03T21:41:41.395Z,100157.81
2022-12-03T21:44:30.993Z,100160.61
2022-12-03T21:47:11.512Z,100164.09
2022-12-03T21:49:42.080Z,100167.59
2022-12-03T21:52:10.730Z,100164.45
2022-12-03T21:54:38.922Z,100166.56
2022-12-03T21:57:07.053Z,100168.03
2022-12-03T21:59:35.245Z,100171.66
2022-12-03T22:02:03.937Z,100169.77
2022-12-03T22:04:32.147Z,100170.13
2022-12-03T22:07:00.196Z,100167.38
2022-12-03T22:09:28.397Z,100168.72
2022-12-03T22:11:59.367Z,100167.14
2022-12-03T22:14:28.403Z,100161.73
2022-12-03T22:16:56.512Z,100161.26
2022-12-03T22:19:26.117Z,100155.81
2022-12-03T22:21:54.204Z,100154.84
2022-12-03T22:24:23.882Z,100151.77
2022-12-03T22:26:53.644Z,100151.77
2022-12-03T22:29:22.091Z,100152.84
2022-12-03T22:31:50.409Z,100146.23
2022-12-03T22:34:18.579Z,100148.61
2022-12-03T22:36:46.655Z,100150.13
2022-12-03T22:39:14.701Z,100151.42
2022-12-03T22:41:42.776Z,100152.20
2022-12-03T22:44:11.594Z,100155.73
2022-12-03T22:46:39.808Z,100154.92
2022-12-03T22:49:08.166Z,100155.61
2022-12-03T22:51:36.324Z,100153.48
2022-12-03T22:54:05.696Z,100147.52
2022-12-03T22:56:33.825Z,100144.61
2022-12-03T22:59:01.906Z,100147.70
2022-12-03T23:01:35.606Z,100141.61
2022-12-03T23:04:04.692Z,100142.05
2022-12-03T23:06:35.175Z,100138.99
2022-12-03T23:09:05.736Z,100137.89
2022-12-03T23:11:34.597Z,100140.33
2022-12-03T23:14:03.354Z,100144.35
2022-12-03T23:16:33.350Z,100147.76
2022-12-03T23:19:02.717Z,100142.85
2022-12-03T23:21:34.183Z,100144.92
2022-12-03T23:24:03.886Z,100137.94
2022-12-03T23:26:36.042Z,100136.79
2022-12-03T23:29:07.905Z,100133.48
2022-12-03T23:31:36.359Z,100132.83
2022-12-03T23:34:07.525Z,100134.20
2022-12-03T23:36:42.770Z,100132.70
2022-12-03T23:39:13.094Z,100138.31
2022-12-03T23:41:44.635Z,100139.80
2022-12-03T23:44:12.673Z,100138.73
2022-12-03T23:46:40.848Z,100137.41
2022-12-03T23:49:14.944Z,100141.13
2022-12-03T23:51:43.038Z,100143.48
2022-12-03T23:54:12.263Z,100143.97
2022-12-03T23:56:42.523Z,100142.31
2022-12-03T23:59:10.636Z,100143.98
